Time;durP1;ratioP1;P1;durP2;ratioP2;P2;SDS_P1;SDS_P2;PMS_P1;PMS_P2;Temp;Humidity;BMP_temperature;BMP_pressure;BME280_temperature;BME280_humidity;BME280_pressure;Samples;Min_cycle;Max_cycle;Signal;HPM_P1;HPM_P2
2022/06/07 00:00:23;;;;;;;26.95;2.10;;;;;;;25.55;37.01;101544.91;4181998;28;20428;-66
2022/06/07 00:02:26;;;;;;;7.93;1.50;;;;;;;25.56;36.76;101545.72;4176323;28;20104;-66
2022/06/07 00:04:27;;;;;;;2.63;1.20;;;;;;;25.54;36.76;101553.59;4165110;28;20041;-66
2022/06/07 00:06:29;;;;;;;3.88;1.10;;;;;;;25.53;36.73;101551.94;4164996;28;20041;-65
2022/06/07 00:08:31;;;;;;;6.93;1.33;;;;;;;25.52;37.14;101550.25;4164662;28;20447;-66
2022/06/07 00:10:33;;;;;;;2.95;1.40;;;;;;;25.50;37.13;101553.38;4174403;28;20041;-66
2022/06/07 00:12:37;;;;;;;5.38;1.10;;;;;;;25.49;37.19;101550.88;4180657;28;20040;-65
2022/06/07 00:14:42;;;;;;;2.75;1.00;;;;;;;25.49;37.53;101550.88;4181352;28;20102;-66
2022/06/07 00:16:43;;;;;;;6.20;1.00;;;;;;;25.49;37.07;101550.88;4181375;28;20079;-66
2022/06/07 00:18:44;;;;;;;3.28;1.08;;;;;;;25.50;37.25;101558.13;4168057;28;20095;-65
2022/06/07 00:20:49;;;;;;;3.10;1.63;;;;;;;25.41;36.98;101540.31;4166375;28;20106;-66
2022/06/07 00:22:51;;;;;;;4.20;0.90;;;;;;;25.48;37.18;101558.44;4165059;28;20049;-66
2022/06/07 00:24:53;;;;;;;3.80;1.13;;;;;;;25.46;37.23;101557.88;4164877;28;20038;-65
2022/06/07 00:26:54;;;;;;;3.63;1.00;;;;;;;25.48;37.09;101563.22;4173936;28;20045;-66
2022/06/07 00:29:00;;;;;;;1.00;0.88;;;;;;;25.47;36.88;101558.72;4180941;28;20087;-66
2022/06/07 00:31:02;;;;;;;5.55;1.27;;;;;;;25.46;36.88;101562.66;4181646;28;20095;-66
2022/06/07 00:33:07;;;;;;;2.30;1.20;;;;;;;25.47;37.14;101572.72;4181745;28;20098;-66
2022/06/07 00:35:08;;;;;;;;;;;;;;;25.44;37.43;101571.38;4181576;28;20041;-66
2022/06/07 00:37:10;;;;;;;4.28;1.13;;;;;;;25.49;37.01;101568.50;4181508;28;19912;-65
2022/06/07 00:39:14;;;;;;;5.38;1.15;;;;;;;25.46;36.92;101565.47;4181138;28;20037;-65
2022/06/07 00:41:15;;;;;;;2.97;1.20;;;;;;;25.46;36.93;101560.69;4181148;28;20094;-65
2022/06/07 00:43:16;;;;;;;1.65;1.00;;;;;;;25.37;37.21;101542.84;4180652;28;20550;-65
2022/06/07 00:45:21;;;;;;;3.45;0.90;;;;;;;25.44;37.06;101565.78;4182002;28;20032;-65
2022/06/07 00:47:26;;;;;;;3.60;1.13;;;;;;;25.45;36.86;101566.59;4181370;28;20041;-65
2022/06/07 00:49:36;;;;;;;2.95;1.00;;;;;;;25.42;37.02;101567.19;4181115;28;20032;-65
2022/06/07 00:51:46;;;;;;;1.67;1.02;;;;;;;25.45;37.24;101566.59;4173071;28;20550;-65
2022/06/07 00:53:48;;;;;;;0.98;0.73;;;;;;;25.45;37.13;101569.41;4163195;28;20049;-65
2022/06/07 00:55:50;;;;;;;3.53;1.00;;;;;;;25.45;36.99;101575.00;4164005;28;20042;-65
2022/06/07 00:57:52;;;;;;;1.05;0.95;;;;;;;25.43;36.73;101585.66;4164488;28;20046;-65
2022/06/07 00:59:54;;;;;;;1.83;1.00;;;;;;;25.43;37.00;101585.66;4164847;28;20041;-65
2022/06/07 01:01:58;;;;;;;1.42;0.95;;;;;;;25.42;36.78;101586.78;4180898;28;20036;-65
2022/06/07 01:03:59;;;;;;;1.37;0.90;;;;;;;25.41;36.95;101583.16;4181987;28;20048;-65
2022/06/07 01:10:43;;;;;;;2.17;1.23;;;;;;;25.40;37.16;101597.47;4180165;28;20098;-65
2022/06/07 01:10:51;;;;;;;2.33;0.90;;;;;;;25.37;36.83;101603.66;4165710;28;20095;-65
2022/06/07 01:12:55;;;;;;;2.85;1.20;;;;;;;25.41;36.73;101615.94;4171133;28;20020;-65
2022/06/07 01:14:59;;;;;;;4.10;1.30;;;;;;;25.41;37.11;101610.34;4196866;28;20040;-66
2022/06/07 01:17:01;;;;;;;1.77;1.00;;;;;;;25.41;36.80;101624.34;4191617;28;20040;-65
2022/06/07 01:19:02;;;;;;;4.53;1.42;;;;;;;25.39;37.03;101619.06;4183115;28;20044;-65
2022/06/07 01:21:40;;;;;;;3.00;1.10;;;;;;;25.30;36.89;101621.66;4185366;28;20053;-65
2022/06/07 01:23:49;;;;;;;9.38;1.80;;;;;;;25.34;36.79;101622.75;4196922;28;20036;-64
2022/06/07 01:25:59;;;;;;;11.05;2.40;;;;;;;25.37;37.15;101637.28;4188200;28;20465;-64
2022/06/07 01:28:01;;;;;;;5.07;1.48;;;;;;;25.37;36.75;101648.50;4184005;28;20087;-64
2022/06/07 01:30:04;;;;;;;8.55;1.75;;;;;;;25.37;36.60;101648.50;4183517;28;20435;-65
2022/06/07 01:32:06;;;;;;;10.48;1.77;;;;;;;25.28;36.86;101635.09;4183545;28;20041;-65
2022/06/07 01:34:09;;;;;;;10.75;1.70;;;;;;;25.33;36.94;101649.06;4179914;28;20037;-65
2022/06/07 01:36:13;;;;;;;9.75;1.98;;;;;;;25.34;36.87;101653.56;4167475;28;20049;-65
2022/06/07 01:38:15;;;;;;;14.50;1.60;;;;;;;25.34;36.71;101661.97;4161350;28;20034;-65
2022/06/07 01:42:39;;;;;;;7.13;2.00;;;;;;;25.34;36.97;101664.78;4187667;28;20095;-66
2022/06/07 01:44:48;;;;;;;7.18;1.65;;;;;;;25.32;36.99;101678.22;4191301;28;20494;-66
2022/06/07 01:46:49;;;;;;;5.80;2.40;;;;;;;25.33;36.83;101679.06;4183747;28;20041;-67
2022/06/07 01:48:53;;;;;;;9.15;1.90;;;;;;;25.31;36.64;101696.16;4179665;28;20037;-65
2022/06/07 01:51:01;;;;;;;11.77;2.55;;;;;;;25.32;36.86;101692.22;4191417;28;20037;-65
2022/06/07 01:53:02;;;;;;;9.50;2.83;;;;;;;25.32;36.98;101697.81;4171551;28;20040;-65
2022/06/07 01:55:05;;;;;;;17.73;2.70;;;;;;;25.28;36.78;101688.34;4172348;28;20543;-65
2022/06/07 01:57:07;;;;;;;14.43;2.67;;;;;;;25.30;36.70;101694.50;4169749;28;20099;-65
2022/06/07 01:59:14;;;;;;;18.02;3.55;;;;;;;25.00;36.73;101655.50;4172125;28;20036;-65
2022/06/07 02:01:18;;;;;;;27.35;2.92;;;;;;;25.29;36.80;101705.97;4175537;28;20103;-65
2022/06/07 02:03:20;;;;;;;13.68;2.83;;;;;;;25.29;36.59;101714.38;4175123;28;20121;-65
2022/06/07 02:05:21;;;;;;;17.30;2.47;;;;;;;25.27;36.52;101717.47;4166769;28;20033;-65
2022/06/07 02:07:23;;;;;;;17.15;2.97;;;;;;;25.26;36.48;101721.41;4166489;28;20409;-66
2022/06/07 02:09:27;;;;;;;24.80;3.10;;;;;;;25.24;36.33;101722.81;4179839;28;20036;-65
2022/06/07 02:11:28;;;;;;;16.33;2.70;;;;;;;25.23;36.53;101716.38;4173721;28;20493;-65
2022/06/07 02:13:29;;;;;;;17.55;3.25;;;;;;;25.24;36.52;101722.81;4168005;28;20042;-65
2022/06/07 02:15:31;;;;;;;14.02;3.20;;;;;;;25.24;36.82;101734.03;4166464;28;20049;-65
2022/06/07 02:17:32;;;;;;;14.98;3.00;;;;;;;25.23;36.69;101741.59;4166106;28;20096;-65
2022/06/07 02:19:36;;;;;;;24.27;4.30;;;;;;;25.23;36.75;101741.59;4166754;28;20095;-65
2022/06/07 02:21:41;;;;;;;15.18;2.60;;;;;;;25.23;36.78;101741.59;4167545;28;20534;-65
2022/06/07 02:23:43;;;;;;;15.40;2.90;;;;;;;25.24;36.37;101740.47;4166411;28;20038;-65
2022/06/07 02:25:50;;;;;;;19.77;3.10;;;;;;;25.20;36.79;101722.59;4166658;28;20111;-65
2022/06/07 02:27:52;;;;;;;21.63;3.35;;;;;;;25.23;36.83;101741.59;4165826;28;20045;-65
2022/06/07 02:29:54;;;;;;;18.35;2.83;;;;;;;25.24;36.39;101739.63;4165513;28;20041;-65
2022/06/07 02:32:03;;;;;;;17.45;2.55;;;;;;;25.23;36.40;101727.59;4176475;28;20095;-65
2022/06/07 02:34:05;;;;;;;12.70;2.80;;;;;;;25.23;36.74;101732.38;4183012;28;20098;-65
2022/06/07 02:36:08;;;;;;;19.33;3.00;;;;;;;25.22;36.52;101737.13;4186046;28;20045;-64
2022/06/07 02:38:14;;;;;;;17.65;3.00;;;;;;;25.21;36.74;101743.88;4183765;28;20032;-66
2022/06/07 02:40:19;;;;;;;17.27;3.67;;;;;;;25.22;36.39;101742.72;4177460;28;20095;-65
2022/06/07 02:42:25;;;;;;;11.90;3.00;;;;;;;25.21;36.43;101743.88;4181146;28;20096;-65
2022/06/07 02:44:30;;;;;;;11.63;3.58;;;;;;;25.21;36.27;101751.44;4166177;28;20034;-65
2022/06/07 02:46:31;;;;;;;17.60;2.45;;;;;;;25.17;36.41;101739.16;4166388;28;20050;-66
2022/06/07 02:48:33;;;;;;;43.75;4.15;;;;;;;25.20;36.41;101753.41;4167364;28;20086;-65
2022/06/07 02:50:34;;;;;;;29.40;2.92;;;;;;;25.21;36.60;101746.66;4181765;28;20053;-65
2022/06/07 02:52:38;;;;;;;12.00;2.83;;;;;;;25.20;36.60;101742.19;4185234;28;20110;-65
2022/06/07 02:54:39;;;;;;;20.43;2.87;;;;;;;25.20;36.36;101750.59;4168092;28;20084;-66
2022/06/07 02:56:44;;;;;;;23.15;2.92;;;;;;;25.19;36.77;101751.72;4165687;28;20041;-66
2022/06/07 02:58:48;;;;;;;15.65;2.80;;;;;;;25.19;36.54;101748.91;4166005;28;20037;-64
2022/06/07 03:00:49;;;;;;;21.83;2.90;;;;;;;25.19;36.91;101746.09;4165726;28;20421;-66
2022/06/07 03:02:51;;;;;;;15.43;2.60;;;;;;;25.19;36.73;101751.72;4165081;28;20123;-64
2022/06/07 03:04:52;;;;;;;16.77;2.90;;;;;;;25.19;36.75;101751.72;4166538;28;20041;-63
2022/06/07 03:06:56;;;;;;;13.77;2.65;;;;;;;25.12;36.90;101744.78;4170047;28;20551;-65
2022/06/07 03:09:01;;;;;;;15.70;2.88;;;;;;;25.18;36.64;101763.22;4182286;28;20044;-65
2022/06/07 03:11:03;;;;;;;13.02;2.70;;;;;;;25.18;36.62;101752.00;4181840;28;20041;-65
2022/06/07 03:13:06;;;;;;;12.25;2.47;;;;;;;25.18;36.80;101749.22;4180251;28;20095;-66
2022/06/07 03:15:11;;;;;;;12.52;2.08;;;;;;;25.17;36.96;101751.19;4182541;28;20033;-64
2022/06/07 03:17:12;;;;;;;14.15;2.13;;;;;;;25.10;37.16;101731.03;4177524;28;20041;-66
2022/06/07 03:19:13;;;;;;;15.45;2.75;;;;;;;25.18;37.22;101746.41;4182117;28;20037;-65
2022/06/07 03:21:15;;;;;;;22.58;3.05;;;;;;;25.17;36.88;101756.78;4182291;28;20037;-65
2022/06/07 03:23:16;;;;;;;16.77;2.50;;;;;;;25.13;37.23;101741.69;4182655;28;20036;-65
2022/06/07 03:25:18;;;;;;;17.10;2.85;;;;;;;25.17;37.14;101748.38;4181726;28;20091;-65
2022/06/07 03:27:20;;;;;;;8.15;2.40;;;;;;;25.17;37.47;101741.94;4181522;28;20435;-65
2022/06/07 03:29:23;;;;;;;11.55;2.30;;;;;;;25.16;37.46;101751.47;4171879;28;20042;-65
2022/06/07 03:31:24;;;;;;;7.10;2.03;;;;;;;25.16;37.41;101738.31;4165347;28;20037;-65
2022/06/07 03:33:25;;;;;;;13.93;2.38;;;;;;;25.15;37.76;101742.22;4170145;28;20053;-65
2022/06/07 03:35:27;;;;;;;7.75;2.15;;;;;;;25.18;37.58;101746.41;4170525;28;20041;-65
2022/06/07 03:37:29;;;;;;;10.40;2.30;;;;;;;25.18;38.42;101741.63;4175960;28;20041;-65
2022/06/07 03:39:31;;;;;;;8.43;2.10;;;;;;;25.19;38.75;101734.91;4164470;28;20096;-65
2022/06/07 03:41:34;;;;;;;18.90;2.70;;;;;;;25.21;39.28;101741.06;4179195;28;20053;-65
2022/06/07 03:43:36;;;;;;;16.00;2.83;;;;;;;25.20;39.43;101745.00;4166260;28;20042;-65
2022/06/07 03:45:38;;;;;;;5.97;1.98;;;;;;;25.21;39.43;101741.06;4165768;28;20049;-65
2022/06/07 03:47:39;;;;;;;10.85;3.03;;;;;;;25.21;39.50;101743.88;4181161;28;20136;-65
2022/06/07 03:49:42;;;;;;;9.80;2.60;;;;;;;25.23;39.41;101743.56;4180073;28;20083;-65
2022/06/07 03:51:43;;;;;;;15.00;2.30;;;;;;;25.21;39.35;101741.06;4164985;28;20100;-65
2022/06/07 03:53:45;;;;;;;8.98;2.40;;;;;;;25.21;39.42;101741.06;4164733;28;20072;-65
2022/06/07 03:55:47;;;;;;;9.68;1.90;;;;;;;25.21;39.56;101749.47;4165132;28;20041;-66
2022/06/07 03:57:48;;;;;;;10.25;2.42;;;;;;;25.22;39.33;101753.94;4165015;28;20045;-66
2022/06/07 03:59:53;;;;;;;7.15;1.90;;;;;;;25.22;39.33;101742.72;4181178;28;20103;-66
2022/06/07 04:01:54;;;;;;;7.40;1.77;;;;;;;25.22;39.01;101742.72;4180395;28;20557;-66
2022/06/07 04:04:00;;;;;;;6.68;1.88;;;;;;;25.23;39.15;101744.41;4180862;28;20390;-65
2022/06/07 04:06:03;;;;;;;10.70;2.00;;;;;;;25.23;38.94;101733.19;4176737;28;20459;-64
2022/06/07 04:08:11;;;;;;;8.98;2.05;;;;;;;25.22;38.91;101727.91;4163441;28;20103;-64
2022/06/07 04:10:12;;;;;;;7.18;1.63;;;;;;;25.22;38.32;101731.53;4176143;28;20044;-65
2022/06/07 04:12:16;;;;;;;7.18;1.90;;;;;;;25.18;38.47;101724.84;4180111;28;20112;-65
2022/06/07 04:14:21;;;;;;;9.10;2.33;;;;;;;25.18;38.63;101730.44;4196855;28;20040;-65
2022/06/07 04:16:24;;;;;;;12.10;2.78;;;;;;;25.19;38.57;101720.06;4196496;28;20049;-65
2022/06/07 04:18:25;;;;;;;7.65;1.80;;;;;;;25.19;38.60;101726.50;4199403;28;20044;-64
2022/06/07 04:20:31;;;;;;;6.57;2.20;;;;;;;25.14;38.46;101723.75;4197130;28;20036;-65
2022/06/07 04:22:32;;;;;;;9.50;2.58;;;;;;;25.18;38.17;101708.03;4185877;28;20079;-66
2022/06/07 04:24:34;;;;;;;3.92;1.42;;;;;;;25.12;38.39;101698.00;4164976;28;20453;-65
2022/06/07 04:26:35;;;;;;;8.63;2.05;;;;;;;25.16;38.07;101704.69;4163529;28;20038;-65
2022/06/07 04:28:37;;;;;;;13.38;1.98;;;;;;;25.17;38.24;101711.13;4163480;28;20042;-65
2022/06/07 04:30:43;;;;;;;6.93;2.53;;;;;;;25.16;38.13;101710.31;4164487;28;20118;-65
2022/06/07 04:32:47;;;;;;;6.93;1.60;;;;;;;25.17;37.96;101705.53;4163610;28;20053;-67
2022/06/07 04:34:51;;;;;;;4.97;1.70;;;;;;;25.15;38.11;101711.41;4164678;28;20543;-66
2022/06/07 04:36:55;;;;;;;7.78;2.05;;;;;;;25.15;37.86;101705.81;4164460;28;20279;-66
2022/06/07 04:38:57;;;;;;;10.43;1.98;;;;;;;25.15;37.76;101708.59;4180805;28;20049;-65
2022/06/07 04:41:06;;;;;;;6.03;1.65;;;;;;;25.10;37.66;101701.06;4180935;28;20098;-66
2022/06/07 04:43:09;;;;;;;5.60;1.77;;;;;;;25.14;37.54;101701.34;4181003;28;20041;-66
2022/06/07 04:45:14;;;;;;;8.63;1.80;;;;;;;25.13;37.33;101701.63;4180981;28;20056;-66
2022/06/07 04:47:17;;;;;;;5.15;1.50;;;;;;;25.11;37.40;101696.34;4162894;28;20038;-66
2022/06/07 04:49:18;;;;;;;6.65;1.80;;;;;;;25.12;37.72;101698.00;4179753;28;20477;-66
2022/06/07 04:51:29;;;;;;;5.10;1.38;;;;;;;25.03;38.08;101688.53;4181558;28;20021;-66
2022/06/07 04:53:31;;;;;;;4.85;1.63;;;;;;;25.08;38.21;101692.16;4179540;28;20111;-66
2022/06/07 04:55:32;;;;;;;8.48;2.42;;;;;;;25.15;38.61;101694.59;4179766;28;20431;-66
2022/06/07 04:57:34;;;;;;;6.75;2.63;;;;;;;25.18;39.02;101690.38;4180611;28;20102;-66
2022/06/07 04:59:35;;;;;;;3.67;1.70;;;;;;;25.17;39.59;101683.97;4180512;28;20366;-66
2022/06/07 05:01:39;;;;;;;4.10;1.60;;;;;;;25.21;39.63;101682.25;4180979;28;20045;-66
2022/06/07 05:03:41;;;;;;;5.18;1.40;;;;;;;25.14;40.11;101667.72;4180880;28;20190;-66
2022/06/07 05:05:45;;;;;;;3.08;1.20;;;;;;;25.28;40.02;101696.75;4180820;28;20115;-66
2022/06/07 05:07:51;;;;;;;2.83;1.33;;;;;;;25.30;40.67;101694.50;4180564;28;20045;-65
2022/06/07 05:09:52;;;;;;;4.57;2.08;;;;;;;25.33;40.61;101699.50;4180630;28;20111;-66
2022/06/07 05:11:54;;;;;;;5.93;1.27;;;;;;;25.35;40.74;101694.44;4181132;28;20103;-65
2022/06/07 05:13:59;;;;;;;4.72;1.23;;;;;;;25.38;40.91;101689.38;4180863;28;20049;-66
2022/06/07 05:16:01;;;;;;;7.57;1.90;;;;;;;25.38;40.64;101694.97;4179181;28;20033;-65
2022/06/07 05:18:02;;;;;;;4.25;1.58;;;;;;;25.43;41.11;101692.13;4180556;28;20106;-66
2022/06/07 05:20:04;;;;;;;1.98;1.30;;;;;;;25.43;40.87;101692.13;4180118;28;20114;-65
2022/06/07 05:22:06;;;;;;;2.88;1.73;;;;;;;25.46;41.24;101694.34;4180744;28;20036;-66
2022/06/07 05:24:08;;;;;;;5.95;1.40;;;;;;;25.42;41.24;101696.91;4180320;28;20107;-66
2022/06/07 05:26:20;;;;;;;3.35;1.60;;;;;;;25.47;41.08;101693.22;4180512;28;20086;-65
2022/06/07 05:28:21;;;;;;;4.70;1.58;;;;;;;25.54;41.32;101696.53;4180639;28;20041;-65
2022/06/07 05:30:23;;;;;;;5.10;1.20;;;;;;;25.55;41.13;101699.03;4180835;28;20197;-65
2022/06/07 05:32:30;;;;;;;3.72;1.60;;;;;;;25.52;41.13;101696.84;4180185;28;20033;-65
2022/06/07 05:34:31;;;;;;;4.43;1.30;;;;;;;25.59;41.05;101697.31;4180295;28;20049;-65
2022/06/07 05:36:39;;;;;;;6.50;1.60;;;;;;;25.57;40.80;101688.38;4180721;28;20079;-66
2022/06/07 05:38:43;;;;;;;3.60;1.58;;;;;;;25.64;41.06;101699.22;4180136;28;20091;-66
2022/06/07 05:40:51;;;;;;;6.68;1.35;;;;;;;25.65;40.87;101689.69;4181218;28;20029;-66
2022/06/07 05:42:53;;;;;;;1.95;1.00;;;;;;;25.67;40.93;101686.59;4180053;28;20029;-66
2022/06/07 05:44:57;;;;;;;5.32;1.70;;;;;;;25.65;40.86;101689.69;4180172;28;20037;-66
2022/06/07 05:47:02;;;;;;;2.72;1.40;;;;;;;25.71;40.76;101694.13;4180026;28;20041;-66
2022/06/07 05:49:04;;;;;;;2.05;1.10;;;;;;;25.73;41.01;101691.84;4180483;28;20049;-65
2022/06/07 05:51:11;;;;;;;2.92;1.42;;;;;;;25.73;40.60;101680.63;4180903;28;20106;-67
2022/06/07 05:53:13;;;;;;;2.92;1.52;;;;;;;25.76;40.84;101684.88;4174153;28;20075;-66
2022/06/07 05:55:15;;;;;;;3.28;1.20;;;;;;;25.77;40.69;101681.75;4164019;28;20108;-66
2022/06/07 05:57:16;;;;;;;6.63;1.20;;;;;;;25.77;40.61;101672.50;4164516;28;20025;-66
2022/06/07 05:59:18;;;;;;;4.95;1.30;;;;;;;25.79;40.40;101673.03;4147284;28;20046;-67
2022/06/07 06:01:22;;;;;;;4.13;1.40;;;;;;;25.80;40.68;101675.56;4164864;28;20045;-66
2022/06/07 06:03:27;;;;;;;3.85;1.33;;;;;;;25.81;40.48;101671.63;4166788;28;20042;-66
2022/06/07 06:05:28;;;;;;;2.10;1.02;;;;;;;25.83;40.79;101677.75;4169175;28;20041;-64
2022/06/07 06:07:29;;;;;;;3.50;1.15;;;;;;;25.84;40.81;101676.66;4169874;28;20049;-65
2022/06/07 06:11:54;;;;;;;2.47;1.70;;;;;;;25.87;40.66;101668.75;4186264;28;20063;-65
2022/06/07 06:13:56;;;;;;;4.25;1.15;;;;;;;25.88;41.00;101670.41;4185610;28;20052;-66
2022/06/07 06:16:14;;;;;;;2.30;1.20;;;;;;;25.62;41.12;101628.63;4186219;28;20180;-65
2022/06/07 06:18:15;;;;;;;3.33;1.20;;;;;;;25.90;40.65;101668.16;4189891;28;20074;-68
2022/06/07 06:20:17;;;;;;;3.75;1.27;;;;;;;25.90;40.66;101662.56;4202986;28;20036;-65
2022/06/07 06:22:18;;;;;;;2.60;0.93;;;;;;;25.91;40.61;101653.00;4198312;28;20025;-65
2022/06/07 06:24:23;;;;;;;2.67;1.33;;;;;;;25.92;40.82;101651.88;4168146;28;20061;-66
2022/06/07 06:26:25;;;;;;;;;;;;;;;25.92;41.19;101646.25;4201946;28;20075;-66
2022/06/07 06:28:29;;;;;;;2.95;1.25;;;;;;;25.96;40.74;101647.34;4185751;28;19897;-67
2022/06/07 06:30:30;;;;;;;2.00;1.10;;;;;;;25.98;40.75;101645.91;4202805;28;20029;-65
2022/06/07 06:32:32;;;;;;;1.38;0.82;;;;;;;25.98;40.69;101647.88;4202047;28;20029;-66
2022/06/07 06:34:36;;;;;;;3.40;1.08;;;;;;;25.94;40.95;101635.59;4188879;28;20120;-66
2022/06/07 06:36:39;;;;;;;2.30;0.90;;;;;;;25.89;40.99;101619.66;4184689;28;20048;-66
2022/06/07 06:38:43;;;;;;;2.65;0.90;;;;;;;25.98;41.10;101636.66;4185040;28;20419;-66
2022/06/07 06:40:47;;;;;;;2.90;1.00;;;;;;;25.99;41.07;101629.94;4173350;28;20496;-65
2022/06/07 06:42:52;;;;;;;2.38;1.08;;;;;;;25.99;41.02;101632.72;4184032;28;20426;-65
2022/06/07 06:44:54;;;;;;;;;;;;;;;25.97;41.19;101629.38;4183672;28;20428;-64
2022/06/07 06:46:57;;;;;;;2.65;1.05;;;;;;;25.90;40.88;101609.28;4183454;28;19913;-65
2022/06/07 06:48:58;;;;;;;3.00;0.90;;;;;;;26.01;41.07;101630.44;4183247;28;20037;-65
2022/06/07 06:51:01;;;;;;;1.30;0.90;;;;;;;26.02;40.88;101632.13;4182965;28;20067;-64
2022/06/07 06:53:05;;;;;;;2.33;1.00;;;;;;;26.02;41.12;101623.69;4183177;28;20566;-64
2022/06/07 06:55:11;;;;;;;3.25;1.27;;;;;;;26.02;40.96;101632.13;4183607;28;20074;-65
2022/06/07 06:57:12;;;;;;;1.80;0.98;;;;;;;26.03;41.33;101634.63;4177971;28;20094;-65
2022/06/07 06:59:15;;;;;;;2.58;1.02;;;;;;;26.04;41.28;101635.47;4182627;28;20111;-65
2022/06/07 07:01:21;;;;;;;1.48;1.00;;;;;;;26.02;41.27;101632.13;4182942;28;20041;-65
2022/06/07 07:03:23;;;;;;;2.60;1.08;;;;;;;26.01;41.36;101630.44;4181888;28;20049;-64
2022/06/07 07:05:24;;;;;;;1.52;1.00;;;;;;;25.97;41.39;101623.75;4166942;28;20179;-65
2022/06/07 07:07:26;;;;;;;3.40;1.48;;;;;;;26.00;41.35;101634.41;4165735;28;20041;-65
2022/06/07 07:09:30;;;;;;;2.10;1.00;;;;;;;26.01;41.50;101634.09;4166278;28;20046;-66
2022/06/07 07:11:54;;;;;;;1.92;1.00;;;;;;;25.99;41.50;101629.94;4166042;28;20100;-65
2022/06/07 07:13:58;;;;;;;1.73;1.00;;;;;;;26.00;41.56;101628.78;4165675;28;20041;-65
2022/06/07 07:16:05;;;;;;;3.00;0.90;;;;;;;26.01;41.49;101624.84;4163676;28;20049;-65
2022/06/07 07:18:07;;;;;;;3.75;1.00;;;;;;;26.00;41.13;101628.78;4165853;28;20107;-65
2022/06/07 07:20:12;;;;;;;2.28;1.13;;;;;;;26.00;41.71;101640.00;4164810;28;20046;-65
2022/06/07 07:22:13;;;;;;;2.50;1.20;;;;;;;25.99;41.58;101638.34;4165525;28;20041;-65
2022/06/07 07:24:18;;;;;;;3.50;0.90;;;;;;;25.98;41.54;101642.25;4166072;28;20582;-64
2022/06/07 07:26:21;;;;;;;;;;;;;;;25.98;41.52;101636.66;4165739;28;20041;-65
2022/06/07 07:28:22;;;;;;;1.60;1.02;;;;;;;26.03;41.50;101633.81;4165762;28;19971;-65
2022/06/07 07:30:25;;;;;;;2.35;1.17;;;;;;;26.04;41.51;101635.47;4165656;28;20559;-64
2022/06/07 07:32:29;;;;;;;2.70;1.10;;;;;;;26.05;41.39;101625.91;4166633;28;20469;-65
2022/06/07 07:34:30;;;;;;;5.38;1.00;;;;;;;26.04;41.57;101624.25;4165268;28;20049;-65
2022/06/07 07:36:32;;;;;;;1.40;0.93;;;;;;;26.00;41.30;101611.97;4165242;28;20037;-64
2022/06/07 07:38:34;;;;;;;3.70;0.98;;;;;;;26.02;41.45;101615.28;4165017;28;20042;-65
2022/06/07 07:40:39;;;;;;;0.82;0.80;;;;;;;26.03;41.39;101637.44;4164875;28;20103;-65
2022/06/07 07:42:41;;;;;;;1.05;0.90;;;;;;;26.03;41.70;101633.81;4165866;28;20096;-65
2022/06/07 07:44:48;;;;;;;3.22;1.30;;;;;;;26.01;41.73;101636.88;4165986;28;20041;-65
2022/06/07 07:46:55;;;;;;;1.70;0.90;;;;;;;26.03;41.79;101636.63;4165188;28;20527;-65
2022/06/07 07:48:56;;;;;;;1.88;1.15;;;;;;;26.04;41.49;101641.91;4165124;28;20041;-65
2022/06/07 07:51:04;;;;;;;2.13;0.80;;;;;;;26.02;41.40;101643.34;4165309;28;20046;-64
2022/06/07 07:53:08;;;;;;;2.63;1.10;;;;;;;26.00;41.61;101625.97;4165120;28;20045;-65
2022/06/07 07:55:10;;;;;;;1.58;0.77;;;;;;;26.05;41.64;101635.16;4163373;28;20037;-64
2022/06/07 07:57:12;;;;;;;1.60;0.85;;;;;;;26.06;41.38;101636.00;4164684;28;20038;-65
2022/06/07 07:59:19;;;;;;;1.15;0.80;;;;;;;26.06;41.55;101630.38;4165277;28;20037;-65
2022/06/07 08:01:22;;;;;;;1.90;0.98;;;;;;;26.06;41.39;101621.97;4165141;28;20042;-65
2022/06/07 08:03:25;;;;;;;1.95;1.02;;;;;;;26.05;41.76;101615.53;4165391;28;20042;-66
2022/06/07 08:05:27;;;;;;;2.17;0.90;;;;;;;26.05;41.48;101609.09;4164837;28;20107;-66
2022/06/07 08:07:28;;;;;;;2.05;0.85;;;;;;;26.06;41.64;101613.56;4164753;28;20041;-66
2022/06/07 08:09:30;;;;;;;2.03;0.80;;;;;;;26.05;41.63;101615.53;4165032;28;20377;-66
2022/06/07 08:11:36;;;;;;;1.48;0.80;;;;;;;26.04;41.83;101607.44;4164890;28;20435;-66
2022/06/07 08:13:37;;;;;;;4.05;0.80;;;;;;;26.07;41.82;101618.03;4163935;28;20111;-66
2022/06/07 08:15:42;;;;;;;1.92;0.65;;;;;;;26.06;41.45;101617.19;4165031;28;20038;-64
2022/06/07 08:17:43;;;;;;;1.35;0.70;;;;;;;26.07;41.69;101615.22;4165136;28;20084;-66
2022/06/07 08:19:45;;;;;;;2.30;1.00;;;;;;;26.07;41.39;101620.81;4164532;28;20447;-66
2022/06/07 08:21:46;;;;;;;1.65;0.77;;;;;;;26.07;41.54;101624.50;4164635;28;20377;-66
2022/06/07 08:23:52;;;;;;;0.98;0.77;;;;;;;26.07;41.77;101618.88;4165419;28;20469;-64
2022/06/07 08:25:53;;;;;;;2.08;1.50;;;;;;;26.09;41.51;101615.78;4164706;28;20049;-63
2022/06/07 08:27:55;;;;;;;2.33;0.90;;;;;;;25.87;41.45;101584.63;4163703;28;20118;-64
2022/06/07 08:29:56;;;;;;;1.30;0.77;;;;;;;26.10;41.81;101617.44;4164914;28;20045;-64
2022/06/07 08:32:00;;;;;;;1.55;0.90;;;;;;;26.11;41.81;101624.69;4165311;28;20029;-64
2022/06/07 08:38:43;;;;;;;2.65;0.88;;;;;;;26.04;41.63;101613.88;4165416;28;20075;-65
2022/06/07 08:40:45;;;;;;;1.58;0.80;;;;;;;26.05;41.49;101614.69;4163177;28;20072;-66
2022/06/07 08:42:58;;;;;;;0.93;0.80;;;;;;;26.11;41.61;101621.91;4164571;28;20041;-66
2022/06/07 08:45:41;;;;;;;2.38;0.80;;;;;;;26.10;41.74;101621.06;4160406;28;20091;-66
2022/06/07 08:47:58;;;;;;;1.10;1.00;;;;;;;26.12;41.41;101620.78;4131175;28;20049;-65
2022/06/07 08:50:12;;;;;;;1.48;0.90;;;;;;;26.12;41.51;101620.78;4165238;28;20037;-66
2022/06/07 08:52:16;;;;;;;2.88;0.82;;;;;;;26.13;41.38;101630.88;4131695;28;20043;-65
2022/06/07 08:54:24;;;;;;;0.90;0.73;;;;;;;26.14;41.57;101635.34;4164855;28;20041;-66
2022/06/07 08:56:33;;;;;;;2.45;0.77;;;;;;;26.14;41.66;101640.94;4164365;28;20607;-65
2022/06/07 08:58:41;;;;;;;1.38;0.68;;;;;;;26.14;41.78;101638.13;4164153;28;20033;-65
2022/06/07 09:00:48;;;;;;;1.50;0.82;;;;;;;26.14;41.74;101640.13;4164473;28;20053;-66
2022/06/07 09:02:58;;;;;;;1.85;0.80;;;;;;;26.15;41.81;101641.78;4163381;28;20095;-65
2022/06/07 09:04:59;;;;;;;0.75;0.63;;;;;;;26.15;41.59;101642.59;4164525;28;20037;-65
2022/06/07 09:07:04;;;;;;;1.88;0.80;;;;;;;26.08;41.70;101631.78;4163766;28;20104;-66
2022/06/07 09:09:06;;;;;;;;;;;;;;;26.12;41.97;101640.41;4165251;28;20042;-66
2022/06/07 09:13:37;;;;;;;1.38;0.70;;;;;;;26.18;41.61;101633.59;4164936;28;20088;-66
2022/06/07 09:15:46;;;;;;;1.23;0.70;;;;;;;26.16;41.61;101627.47;4164900;28;20079;-66
2022/06/07 09:17:51;;;;;;;1.50;0.90;;;;;;;26.17;41.42;101634.75;4163749;28;20271;-65
2022/06/07 09:19:55;;;;;;;1.17;0.60;;;;;;;26.17;41.79;101634.75;4164205;28;20103;-66
2022/06/07 09:22:00;;;;;;;1.08;0.68;;;;;;;26.16;41.43;101638.69;4164029;28;20050;-65
2022/06/07 09:24:02;;;;;;;1.58;0.63;;;;;;;26.16;41.89;101637.84;4146706;28;20399;-66
2022/06/07 09:26:24;;;;;;;1.05;0.50;;;;;;;26.15;41.83;101634.19;4163895;28;20045;-65
2022/06/07 09:28:31;;;;;;;1.92;1.02;;;;;;;26.16;41.61;101644.31;4162806;28;20092;-66
2022/06/07 09:30:43;;;;;;;0.40;0.40;;;;;;;26.16;41.62;101652.72;4163880;28;20092;-65
2022/06/07 09:32:50;;;;;;;1.38;0.80;;;;;;;26.17;41.88;101651.56;4163711;28;20041;-65
2022/06/07 09:34:59;;;;;;;0.80;0.60;;;;;;;26.17;41.57;101651.56;4164302;28;20041;-65
2022/06/07 09:37:13;;;;;;;1.08;0.63;;;;;;;26.17;41.67;101660.00;4163656;28;20045;-65
2022/06/07 09:39:32;;;;;;;0.63;0.63;;;;;;;26.16;41.65;101661.13;4166166;28;20172;-65
2022/06/07 09:41:50;;;;;;;;;;;;;;;;;;;;;
2022/06/07 09:43:51;;;;;;;0.93;0.60;;;;;;;26.18;41.60;101661.66;4163614;28;20042;-66
2022/06/07 09:46:08;;;;;;;1.48;0.90;;;;;;;26.19;41.73;101662.50;4166798;28;20068;-65
2022/06/07 09:48:29;;;;;;;0.82;0.50;;;;;;;26.17;41.66;101645.13;4167117;28;20095;-65
2022/06/07 09:50:34;;;;;;;1.00;0.73;;;;;;;26.19;41.84;101648.47;4166956;28;20099;-65
2022/06/07 09:52:45;;;;;;;0.50;0.50;;;;;;;26.18;41.90;101641.19;4166720;28;20041;-65